sensor_id;sensor_type;location;lat;lon;timestamp;P1;durP1;ratioP1;P2;durP2;ratioP2
6251;SDS011;3159;52.414;9.784;2023-01-28T00:01:05;2.50;;;1.03;;
6251;SDS011;3159;52.414;9.784;2023-01-28T00:03:32;0.63;;;0.63;;
6251;SDS011;3159;52.414;9.784;2023-01-28T00:06:02;5.33;;;0.90;;
6251;SDS011;3159;52.414;9.784;2023-01-28T00:08:30;1.30;;;0.70;;
6251;SDS011;3159;52.414;9.784;2023-01-28T00:10:58;3.17;;;0.60;;
6251;SDS011;3159;52.414;9.784;2023-01-28T00:13:27;1.43;;;0.80;;
6251;SDS011;3159;52.414;9.784;2023-01-28T00:15:54;1.07;;;0.77;;
6251;SDS011;3159;52.414;9.784;2023-01-28T00:18:22;0.70;;;0.70;;
6251;SDS011;3159;52.414;9.784;2023-01-28T00:20:57;7.20;;;1.43;;
6251;SDS011;3159;52.414;9.784;2023-01-28T00:23:24;2.40;;;0.70;;
6251;SDS011;3159;52.414;9.784;2023-01-28T00:25:51;1.43;;;0.90;;
6251;SDS011;3159;52.414;9.784;2023-01-28T00:28:19;3.30;;;0.93;;
6251;SDS011;3159;52.414;9.784;2023-01-28T00:30:47;2.07;;;0.90;;
6251;SDS011;3159;52.414;9.784;2023-01-28T00:33:14;2.30;;;0.80;;
6251;SDS011;3159;52.414;9.784;2023-01-28T00:35:41;1.03;;;0.90;;
6251;SDS011;3159;52.414;9.784;2023-01-28T00:38:07;0.80;;;0.70;;
6251;SDS011;3159;52.414;9.784;2023-01-28T00:40:35;3.87;;;1.43;;
6251;SDS011;3159;52.414;9.784;2023-01-28T00:43:02;1.10;;;0.90;;
6251;SDS011;3159;52.414;9.784;2023-01-28T00:45:28;2.67;;;0.60;;
6251;SDS011;3159;52.414;9.784;2023-01-28T00:47:57;4.53;;;0.90;;
6251;SDS011;3159;52.414;9.784;2023-01-28T00:50:23;1.30;;;0.90;;
6251;SDS011;3159;52.414;9.784;2023-01-28T00:52:50;2.03;;;0.90;;
6251;SDS011;3159;52.414;9.784;2023-01-28T00:55:17;1.80;;;0.90;;
6251;SDS011;3159;52.414;9.784;2023-01-28T00:57:44;3.03;;;0.80;;
6251;SDS011;3159;52.414;9.784;2023-01-28T01:00:11;0.80;;;0.80;;
6251;SDS011;3159;52.414;9.784;2023-01-28T01:02:38;3.57;;;1.00;;
6251;SDS011;3159;52.414;9.784;2023-01-28T01:05:06;0.97;;;0.73;;
6251;SDS011;3159;52.414;9.784;2023-01-28T01:07:33;2.17;;;1.10;;
6251;SDS011;3159;52.414;9.784;2023-01-28T01:10:06;2.80;;;0.80;;
6251;SDS011;3159;52.414;9.784;2023-01-28T01:12:34;1.10;;;0.60;;
6251;SDS011;3159;52.414;9.784;2023-01-28T01:15:01;2.87;;;0.87;;
6251;SDS011;3159;52.414;9.784;2023-01-28T01:17:28;1.30;;;0.93;;
6251;SDS011;3159;52.414;9.784;2023-01-28T01:19:55;0.63;;;0.63;;
6251;SDS011;3159;52.414;9.784;2023-01-28T01:22:24;2.93;;;0.87;;
6251;SDS011;3159;52.414;9.784;2023-01-28T01:24:50;1.27;;;0.60;;
6251;SDS011;3159;52.414;9.784;2023-01-28T01:27:17;1.90;;;0.73;;
6251;SDS011;3159;52.414;9.784;2023-01-28T01:29:44;1.40;;;0.90;;
6251;SDS011;3159;52.414;9.784;2023-01-28T01:32:11;2.73;;;0.90;;
6251;SDS011;3159;52.414;9.784;2023-01-28T01:34:37;1.47;;;0.80;;
6251;SDS011;3159;52.414;9.784;2023-01-28T01:37:04;2.50;;;1.00;;
6251;SDS011;3159;52.414;9.784;2023-01-28T01:39:33;1.23;;;0.70;;
6251;SDS011;3159;52.414;9.784;2023-01-28T01:42:00;1.90;;;0.87;;
6251;SDS011;3159;52.414;9.784;2023-01-28T01:44:51;1.20;;;0.70;;
6251;SDS011;3159;52.414;9.784;2023-01-28T01:47:23;1.77;;;0.93;;
6251;SDS011;3159;52.414;9.784;2023-01-28T01:49:53;2.30;;;0.90;;
6251;SDS011;3159;52.414;9.784;2023-01-28T01:52:22;1.67;;;1.00;;
6251;SDS011;3159;52.414;9.784;2023-01-28T01:54:54;1.97;;;0.90;;
6251;SDS011;3159;52.414;9.784;2023-01-28T01:57:25;1.07;;;0.80;;
6251;SDS011;3159;52.414;9.784;2023-01-28T01:59:55;3.50;;;0.80;;
6251;SDS011;3159;52.414;9.784;2023-01-28T02:02:31;2.93;;;1.17;;
6251;SDS011;3159;52.414;9.784;2023-01-28T02:05:01;0.97;;;0.77;;
6251;SDS011;3159;52.414;9.784;2023-01-28T02:07:29;2.70;;;1.07;;
6251;SDS011;3159;52.414;9.784;2023-01-28T02:09:57;0.97;;;0.90;;
6251;SDS011;3159;52.414;9.784;2023-01-28T02:12:25;1.10;;;0.80;;
6251;SDS011;3159;52.414;9.784;2023-01-28T02:14:56;2.10;;;0.83;;
6251;SDS011;3159;52.414;9.784;2023-01-28T02:17:25;2.20;;;1.13;;
6251;SDS011;3159;52.414;9.784;2023-01-28T02:19:53;2.90;;;0.87;;
6251;SDS011;3159;52.414;9.784;2023-01-28T02:22:28;0.80;;;0.80;;
6251;SDS011;3159;52.414;9.784;2023-01-28T02:25:24;2.63;;;0.90;;
6251;SDS011;3159;52.414;9.784;2023-01-28T02:28:13;2.60;;;0.97;;
6251;SDS011;3159;52.414;9.784;2023-01-28T02:30:48;1.07;;;0.77;;
6251;SDS011;3159;52.414;9.784;2023-01-28T02:33:21;5.30;;;1.10;;
6251;SDS011;3159;52.414;9.784;2023-01-28T02:35:52;1.20;;;1.00;;
6251;SDS011;3159;52.414;9.784;2023-01-28T02:38:22;0.87;;;0.83;;
6251;SDS011;3159;52.414;9.784;2023-01-28T02:40:52;0.93;;;0.83;;
6251;SDS011;3159;52.414;9.784;2023-01-28T02:43:32;2.40;;;1.03;;
6251;SDS011;3159;52.414;9.784;2023-01-28T02:46:02;1.00;;;0.80;;
6251;SDS011;3159;52.414;9.784;2023-01-28T02:48:56;1.77;;;0.80;;
6251;SDS011;3159;52.414;9.784;2023-01-28T02:51:28;1.53;;;1.10;;
6251;SDS011;3159;52.414;9.784;2023-01-28T02:54:06;3.37;;;1.07;;
6251;SDS011;3159;52.414;9.784;2023-01-28T02:56:37;1.60;;;1.20;;
6251;SDS011;3159;52.414;9.784;2023-01-28T02:59:12;2.23;;;1.00;;
6251;SDS011;3159;52.414;9.784;2023-01-28T03:01:59;6.83;;;1.20;;
6251;SDS011;3159;52.414;9.784;2023-01-28T03:04:36;2.20;;;1.00;;
6251;SDS011;3159;52.414;9.784;2023-01-28T03:07:06;4.60;;;1.00;;
6251;SDS011;3159;52.414;9.784;2023-01-28T03:09:35;1.63;;;1.07;;
6251;SDS011;3159;52.414;9.784;2023-01-28T03:12:04;1.30;;;1.10;;
6251;SDS011;3159;52.414;9.784;2023-01-28T03:14:53;1.83;;;1.00;;
6251;SDS011;3159;52.414;9.784;2023-01-28T03:17:41;3.20;;;1.07;;
6251;SDS011;3159;52.414;9.784;2023-01-28T03:20:31;2.50;;;1.20;;
6251;SDS011;3159;52.414;9.784;2023-01-28T03:23:21;1.83;;;1.30;;
6251;SDS011;3159;52.414;9.784;2023-01-28T03:26:13;2.63;;;1.07;;
6251;SDS011;3159;52.414;9.784;2023-01-28T03:29:00;1.70;;;1.10;;
6251;SDS011;3159;52.414;9.784;2023-01-28T03:31:52;1.80;;;1.27;;
6251;SDS011;3159;52.414;9.784;2023-01-28T03:34:38;1.40;;;0.93;;
6251;SDS011;3159;52.414;9.784;2023-01-28T03:37:23;1.67;;;1.10;;
6251;SDS011;3159;52.414;9.784;2023-01-28T03:39:50;0.93;;;0.83;;
6251;SDS011;3159;52.414;9.784;2023-01-28T03:42:18;3.00;;;1.23;;
6251;SDS011;3159;52.414;9.784;2023-01-28T03:44:44;3.63;;;1.10;;
6251;SDS011;3159;52.414;9.784;2023-01-28T03:47:18;2.43;;;1.17;;
6251;SDS011;3159;52.414;9.784;2023-01-28T03:49:46;1.70;;;1.03;;
6251;SDS011;3159;52.414;9.784;2023-01-28T03:52:14;2.07;;;1.20;;
6251;SDS011;3159;52.414;9.784;2023-01-28T03:54:42;2.13;;;1.00;;
6251;SDS011;3159;52.414;9.784;2023-01-28T03:57:11;4.47;;;1.07;;
6251;SDS011;3159;52.414;9.784;2023-01-28T03:59:38;1.37;;;1.10;;
6251;SDS011;3159;52.414;9.784;2023-01-28T04:02:05;2.20;;;1.10;;
6251;SDS011;3159;52.414;9.784;2023-01-28T04:04:36;5.90;;;1.10;;
6251;SDS011;3159;52.414;9.784;2023-01-28T04:07:03;2.77;;;1.27;;
6251;SDS011;3159;52.414;9.784;2023-01-28T04:09:30;1.03;;;0.90;;
6251;SDS011;3159;52.414;9.784;2023-01-28T04:11:56;1.37;;;0.90;;
6251;SDS011;3159;52.414;9.784;2023-01-28T04:14:23;0.90;;;0.90;;
6251;SDS011;3159;52.414;9.784;2023-01-28T04:16:50;1.63;;;0.80;;
6251;SDS011;3159;52.414;9.784;2023-01-28T04:19:18;3.70;;;1.20;;
6251;SDS011;3159;52.414;9.784;2023-01-28T04:21:47;3.30;;;1.20;;
6251;SDS011;3159;52.414;9.784;2023-01-28T04:24:14;1.43;;;1.20;;
6251;SDS011;3159;52.414;9.784;2023-01-28T04:26:41;2.10;;;1.07;;
6251;SDS011;3159;52.414;9.784;2023-01-28T04:29:08;1.90;;;0.90;;
6251;SDS011;3159;52.414;9.784;2023-01-28T04:31:35;2.00;;;1.13;;
6251;SDS011;3159;52.414;9.784;2023-01-28T04:34:02;2.87;;;0.87;;
6251;SDS011;3159;52.414;9.784;2023-01-28T04:36:28;2.23;;;1.17;;
6251;SDS011;3159;52.414;9.784;2023-01-28T04:38:57;1.50;;;1.20;;
6251;SDS011;3159;52.414;9.784;2023-01-28T04:41:23;1.60;;;1.10;;
6251;SDS011;3159;52.414;9.784;2023-01-28T04:43:50;1.23;;;1.00;;
6251;SDS011;3159;52.414;9.784;2023-01-28T04:46:17;3.63;;;1.10;;
6251;SDS011;3159;52.414;9.784;2023-01-28T04:48:44;2.20;;;1.10;;
6251;SDS011;3159;52.414;9.784;2023-01-28T04:51:10;2.67;;;1.00;;
6251;SDS011;3159;52.414;9.784;2023-01-28T04:53:37;2.17;;;1.07;;
6251;SDS011;3159;52.414;9.784;2023-01-28T04:56:05;3.57;;;1.07;;
6251;SDS011;3159;52.414;9.784;2023-01-28T04:58:32;1.63;;;1.20;;
6251;SDS011;3159;52.414;9.784;2023-01-28T05:00:59;2.57;;;1.27;;
6251;SDS011;3159;52.414;9.784;2023-01-28T05:03:26;3.57;;;1.00;;
6251;SDS011;3159;52.414;9.784;2023-01-28T05:05:53;0.83;;;0.83;;
6251;SDS011;3159;52.414;9.784;2023-01-28T05:08:20;4.80;;;1.30;;
6251;SDS011;3159;52.414;9.784;2023-01-28T05:10:46;1.60;;;0.80;;
6251;SDS011;3159;52.414;9.784;2023-01-28T05:13:15;1.17;;;1.07;;
6251;SDS011;3159;52.414;9.784;2023-01-28T05:15:41;2.77;;;1.20;;
6251;SDS011;3159;52.414;9.784;2023-01-28T05:18:08;1.87;;;1.13;;
6251;SDS011;3159;52.414;9.784;2023-01-28T05:20:35;3.40;;;1.40;;
6251;SDS011;3159;52.414;9.784;2023-01-28T05:23:02;1.47;;;1.03;;
6251;SDS011;3159;52.414;9.784;2023-01-28T05:25:28;3.47;;;1.23;;
6251;SDS011;3159;52.414;9.784;2023-01-28T05:27:55;2.00;;;1.17;;
6251;SDS011;3159;52.414;9.784;2023-01-28T05:30:23;1.10;;;1.00;;
6251;SDS011;3159;52.414;9.784;2023-01-28T05:32:53;1.13;;;0.87;;
6251;SDS011;3159;52.414;9.784;2023-01-28T05:35:21;2.47;;;0.93;;
6251;SDS011;3159;52.414;9.784;2023-01-28T05:37:48;2.57;;;1.03;;
6251;SDS011;3159;52.414;9.784;2023-01-28T05:40:14;3.87;;;1.07;;
6251;SDS011;3159;52.414;9.784;2023-01-28T05:42:42;2.03;;;1.20;;
6251;SDS011;3159;52.414;9.784;2023-01-28T05:45:09;1.00;;;0.90;;
6251;SDS011;3159;52.414;9.784;2023-01-28T05:47:37;2.33;;;1.00;;
6251;SDS011;3159;52.414;9.784;2023-01-28T05:50:04;2.27;;;1.20;;
6251;SDS011;3159;52.414;9.784;2023-01-28T05:52:32;3.97;;;1.20;;
6251;SDS011;3159;52.414;9.784;2023-01-28T05:54:59;1.80;;;1.10;;
6251;SDS011;3159;52.414;9.784;2023-01-28T05:57:26;3.43;;;1.10;;
6251;SDS011;3159;52.414;9.784;2023-01-28T05:59:53;2.10;;;1.00;;
6251;SDS011;3159;52.414;9.784;2023-01-28T06:02:19;0.90;;;0.90;;
6251;SDS011;3159;52.414;9.784;2023-01-28T06:04:48;1.57;;;1.13;;
6251;SDS011;3159;52.414;9.784;2023-01-28T06:07:14;2.00;;;1.20;;
6251;SDS011;3159;52.414;9.784;2023-01-28T06:09:44;1.73;;;1.30;;
6251;SDS011;3159;52.414;9.784;2023-01-28T06:12:11;1.77;;;1.10;;
6251;SDS011;3159;52.414;9.784;2023-01-28T06:14:38;1.80;;;1.00;;
6251;SDS011;3159;52.414;9.784;2023-01-28T06:17:05;1.63;;;1.10;;
6251;SDS011;3159;52.414;9.784;2023-01-28T06:19:31;2.93;;;1.20;;
6251;SDS011;3159;52.414;9.784;2023-01-28T06:22:00;1.50;;;0.90;;
6251;SDS011;3159;52.414;9.784;2023-01-28T06:24:27;2.73;;;1.10;;
6251;SDS011;3159;52.414;9.784;2023-01-28T06:26:53;1.30;;;1.20;;
6251;SDS011;3159;52.414;9.784;2023-01-28T06:29:20;1.70;;;1.03;;
6251;SDS011;3159;52.414;9.784;2023-01-28T06:31:47;1.50;;;0.90;;
6251;SDS011;3159;52.414;9.784;2023-01-28T06:34:15;2.70;;;1.30;;
6251;SDS011;3159;52.414;9.784;2023-01-28T06:36:41;2.93;;;1.20;;
6251;SDS011;3159;52.414;9.784;2023-01-28T06:39:10;5.37;;;1.13;;
6251;SDS011;3159;52.414;9.784;2023-01-28T06:41:37;1.57;;;0.90;;
6251;SDS011;3159;52.414;9.784;2023-01-28T06:44:04;1.30;;;1.20;;
6251;SDS011;3159;52.414;9.784;2023-01-28T06:46:31;1.07;;;1.00;;
6251;SDS011;3159;52.414;9.784;2023-01-28T06:48:57;4.30;;;1.03;;
6251;SDS011;3159;52.414;9.784;2023-01-28T06:51:24;1.70;;;1.07;;
6251;SDS011;3159;52.414;9.784;2023-01-28T06:53:51;2.70;;;1.00;;
6251;SDS011;3159;52.414;9.784;2023-01-28T06:56:19;2.33;;;1.03;;
6251;SDS011;3159;52.414;9.784;2023-01-28T06:58:46;2.73;;;0.93;;
6251;SDS011;3159;52.414;9.784;2023-01-28T07:01:13;2.00;;;1.17;;
6251;SDS011;3159;52.414;9.784;2023-01-28T07:03:40;3.30;;;1.20;;
6251;SDS011;3159;52.414;9.784;2023-01-28T07:06:06;1.47;;;1.00;;
6251;SDS011;3159;52.414;9.784;2023-01-28T07:08:33;1.83;;;1.10;;
6251;SDS011;3159;52.414;9.784;2023-01-28T07:11:01;1.83;;;0.90;;
6251;SDS011;3159;52.414;9.784;2023-01-28T07:13:30;3.20;;;1.17;;
6251;SDS011;3159;52.414;9.784;2023-01-28T07:15:57;1.70;;;1.10;;
6251;SDS011;3159;52.414;9.784;2023-01-28T07:18:24;1.67;;;0.90;;
6251;SDS011;3159;52.414;9.784;2023-01-28T07:20:51;1.47;;;1.00;;
6251;SDS011;3159;52.414;9.784;2023-01-28T07:23:17;2.07;;;1.20;;
6251;SDS011;3159;52.414;9.784;2023-01-28T07:25:44;3.17;;;1.30;;
6251;SDS011;3159;52.414;9.784;2023-01-28T07:28:11;2.67;;;1.20;;
6251;SDS011;3159;52.414;9.784;2023-01-28T07:30:39;1.27;;;1.00;;
6251;SDS011;3159;52.414;9.784;2023-01-28T07:33:06;3.80;;;1.27;;
6251;SDS011;3159;52.414;9.784;2023-01-28T07:35:33;1.50;;;1.33;;
6251;SDS011;3159;52.414;9.784;2023-01-28T07:37:59;1.70;;;1.13;;
6251;SDS011;3159;52.414;9.784;2023-01-28T07:40:26;1.37;;;1.03;;
6251;SDS011;3159;52.414;9.784;2023-01-28T07:42:54;2.93;;;1.20;;
6251;SDS011;3159;52.414;9.784;2023-01-28T07:45:20;1.40;;;1.27;;
6251;SDS011;3159;52.414;9.784;2023-01-28T07:47:56;2.60;;;1.30;;
6251;SDS011;3159;52.414;9.784;2023-01-28T07:50:24;1.97;;;1.10;;
6251;SDS011;3159;52.414;9.784;2023-01-28T07:52:53;2.10;;;1.33;;
6251;SDS011;3159;52.414;9.784;2023-01-28T07:55:20;1.77;;;1.33;;
6251;SDS011;3159;52.414;9.784;2023-01-28T07:57:47;3.33;;;1.33;;
6251;SDS011;3159;52.414;9.784;2023-01-28T08:00:15;1.67;;;1.20;;
6251;SDS011;3159;52.414;9.784;2023-01-28T08:02:43;4.00;;;1.43;;
6251;SDS011;3159;52.414;9.784;2023-01-28T08:05:13;1.80;;;1.30;;
6251;SDS011;3159;52.414;9.784;2023-01-28T08:07:41;4.77;;;1.40;;
6251;SDS011;3159;52.414;9.784;2023-01-28T08:10:09;3.50;;;1.43;;
6251;SDS011;3159;52.414;9.784;2023-01-28T08:12:36;4.47;;;1.10;;
6251;SDS011;3159;52.414;9.784;2023-01-28T08:15:04;3.10;;;1.20;;
6251;SDS011;3159;52.414;9.784;2023-01-28T08:17:32;1.73;;;1.00;;
6251;SDS011;3159;52.414;9.784;2023-01-28T08:19:58;3.70;;;1.50;;
6251;SDS011;3159;52.414;9.784;2023-01-28T08:22:27;1.30;;;1.20;;
6251;SDS011;3159;52.414;9.784;2023-01-28T08:24:54;1.50;;;1.30;;
6251;SDS011;3159;52.414;9.784;2023-01-28T08:27:21;2.30;;;0.93;;
6251;SDS011;3159;52.414;9.784;2023-01-28T08:29:48;2.80;;;1.30;;
6251;SDS011;3159;52.414;9.784;2023-01-28T08:32:15;2.77;;;1.30;;
6251;SDS011;3159;52.414;9.784;2023-01-28T08:34:42;3.97;;;1.40;;
6251;SDS011;3159;52.414;9.784;2023-01-28T08:37:08;1.50;;;1.40;;
6251;SDS011;3159;52.414;9.784;2023-01-28T08:39:36;2.83;;;1.23;;
6251;SDS011;3159;52.414;9.784;2023-01-28T08:42:04;2.60;;;1.47;;
6251;SDS011;3159;52.414;9.784;2023-01-28T08:44:31;2.67;;;1.40;;
6251;SDS011;3159;52.414;9.784;2023-01-28T08:46:58;2.83;;;1.57;;
6251;SDS011;3159;52.414;9.784;2023-01-28T08:49:24;1.83;;;1.37;;
6251;SDS011;3159;52.414;9.784;2023-01-28T08:51:51;1.83;;;1.50;;
6251;SDS011;3159;52.414;9.784;2023-01-28T08:54:19;3.27;;;1.67;;
6251;SDS011;3159;52.414;9.784;2023-01-28T08:56:47;3.17;;;1.70;;
6251;SDS011;3159;52.414;9.784;2023-01-28T08:59:15;2.00;;;1.60;;
6251;SDS011;3159;52.414;9.784;2023-01-28T09:01:42;1.70;;;1.40;;
6251;SDS011;3159;52.414;9.784;2023-01-28T09:04:09;1.90;;;1.57;;
6251;SDS011;3159;52.414;9.784;2023-01-28T09:06:36;2.33;;;1.60;;
6251;SDS011;3159;52.414;9.784;2023-01-28T09:09:03;2.33;;;1.47;;
6251;SDS011;3159;52.414;9.784;2023-01-28T09:11:30;3.03;;;1.80;;
6251;SDS011;3159;52.414;9.784;2023-01-28T09:13:58;2.57;;;1.93;;
6251;SDS011;3159;52.414;9.784;2023-01-28T09:16:25;9.73;;;6.20;;
6251;SDS011;3159;52.414;9.784;2023-01-28T09:18:52;9.50;;;3.73;;
6251;SDS011;3159;52.414;9.784;2023-01-28T09:21:19;3.67;;;3.13;;
6251;SDS011;3159;52.414;9.784;2023-01-28T09:23:46;6.23;;;4.00;;
6251;SDS011;3159;52.414;9.784;2023-01-28T09:26:13;7.43;;;4.90;;
6251;SDS011;3159;52.414;9.784;2023-01-28T09:28:40;11.70;;;6.93;;
6251;SDS011;3159;52.414;9.784;2023-01-28T09:31:09;170.40;;;14.07;;
6251;SDS011;3159;52.414;9.784;2023-01-28T09:33:37;8.57;;;2.13;;
6251;SDS011;3159;52.414;9.784;2023-01-28T09:36:06;1.80;;;1.60;;
6251;SDS011;3159;52.414;9.784;2023-01-28T09:38:35;3.50;;;1.77;;
6251;SDS011;3159;52.414;9.784;2023-01-28T09:41:02;3.67;;;1.87;;
6251;SDS011;3159;52.414;9.784;2023-01-28T09:43:49;2.60;;;2.20;;
6251;SDS011;3159;52.414;9.784;2023-01-28T09:46:25;4.07;;;2.97;;
6251;SDS011;3159;52.414;9.784;2023-01-28T09:48:56;7.20;;;4.30;;
6251;SDS011;3159;52.414;9.784;2023-01-28T09:51:28;2.73;;;2.47;;
6251;SDS011;3159;52.414;9.784;2023-01-28T09:53:59;3.40;;;2.27;;
6251;SDS011;3159;52.414;9.784;2023-01-28T09:56:30;8.63;;;5.90;;
6251;SDS011;3159;52.414;9.784;2023-01-28T09:59:04;6.47;;;2.73;;
6251;SDS011;3159;52.414;9.784;2023-01-28T10:01:43;2.97;;;2.03;;
6251;SDS011;3159;52.414;9.784;2023-01-28T10:04:18;3.93;;;2.10;;
6251;SDS011;3159;52.414;9.784;2023-01-28T10:06:57;3.70;;;3.00;;
6251;SDS011;3159;52.414;9.784;2023-01-28T10:09:37;21.03;;;10.23;;
6251;SDS011;3159;52.414;9.784;2023-01-28T10:12:21;9.13;;;5.23;;
6251;SDS011;3159;52.414;9.784;2023-01-28T10:15:05;4.40;;;3.00;;
6251;SDS011;3159;52.414;9.784;2023-01-28T10:17:48;2.20;;;1.90;;
6251;SDS011;3159;52.414;9.784;2023-01-28T10:20:19;2.23;;;2.07;;
6251;SDS011;3159;52.414;9.784;2023-01-28T10:22:52;3.60;;;2.90;;
6251;SDS011;3159;52.414;9.784;2023-01-28T10:25:25;3.57;;;2.47;;
6251;SDS011;3159;52.414;9.784;2023-01-28T10:27:55;2.90;;;2.13;;
6251;SDS011;3159;52.414;9.784;2023-01-28T10:30:22;3.93;;;2.50;;
6251;SDS011;3159;52.414;9.784;2023-01-28T10:32:52;3.13;;;1.97;;
6251;SDS011;3159;52.414;9.784;2023-01-28T10:35:21;2.90;;;2.00;;
6251;SDS011;3159;52.414;9.784;2023-01-28T10:37:49;2.37;;;2.10;;
6251;SDS011;3159;52.414;9.784;2023-01-28T10:40:22;11.07;;;5.80;;
6251;SDS011;3159;52.414;9.784;2023-01-28T10:42:49;6.23;;;3.80;;
6251;SDS011;3159;52.414;9.784;2023-01-28T10:45:17;3.97;;;3.40;;
6251;SDS011;3159;52.414;9.784;2023-01-28T10:47:49;3.10;;;2.40;;
6251;SDS011;3159;52.414;9.784;2023-01-28T10:50:25;2.50;;;2.30;;
6251;SDS011;3159;52.414;9.784;2023-01-28T10:52:54;3.43;;;2.17;;
6251;SDS011;3159;52.414;9.784;2023-01-28T10:55:23;2.90;;;2.27;;
6251;SDS011;3159;52.414;9.784;2023-01-28T10:57:53;4.10;;;3.47;;
6251;SDS011;3159;52.414;9.784;2023-01-28T11:00:25;5.73;;;3.07;;
6251;SDS011;3159;52.414;9.784;2023-01-28T11:02:56;9.57;;;4.63;;
6251;SDS011;3159;52.414;9.784;2023-01-28T11:05:24;3.53;;;2.53;;
6251;SDS011;3159;52.414;9.784;2023-01-28T11:08:01;6.60;;;2.97;;
6251;SDS011;3159;52.414;9.784;2023-01-28T11:10:31;4.17;;;2.87;;
6251;SDS011;3159;52.414;9.784;2023-01-28T11:13:01;3.73;;;2.20;;
6251;SDS011;3159;52.414;9.784;2023-01-28T11:15:29;10.43;;;6.47;;
6251;SDS011;3159;52.414;9.784;2023-01-28T11:17:59;5.47;;;3.97;;
6251;SDS011;3159;52.414;9.784;2023-01-28T11:20:29;3.37;;;2.77;;
6251;SDS011;3159;52.414;9.784;2023-01-28T11:23:00;4.80;;;3.63;;
6251;SDS011;3159;52.414;9.784;2023-01-28T11:25:28;21.27;;;11.40;;
6251;SDS011;3159;52.414;9.784;2023-01-28T11:27:58;4.90;;;3.90;;
6251;SDS011;3159;52.414;9.784;2023-01-28T11:30:27;4.87;;;3.13;;
6251;SDS011;3159;52.414;9.784;2023-01-28T11:32:59;6.47;;;3.57;;
6251;SDS011;3159;52.414;9.784;2023-01-28T11:35:30;4.57;;;3.03;;
6251;SDS011;3159;52.414;9.784;2023-01-28T11:37:57;16.27;;;10.30;;
6251;SDS011;3159;52.414;9.784;2023-01-28T11:40:25;7.93;;;6.63;;
6251;SDS011;3159;52.414;9.784;2023-01-28T11:42:52;3.83;;;3.43;;
6251;SDS011;3159;52.414;9.784;2023-01-28T11:45:24;4.10;;;2.73;;
6251;SDS011;3159;52.414;9.784;2023-01-28T11:48:05;2.77;;;2.57;;
6251;SDS011;3159;52.414;9.784;2023-01-28T11:50:43;2.87;;;2.50;;
6251;SDS011;3159;52.414;9.784;2023-01-28T11:53:22;2.50;;;2.30;;
6251;SDS011;3159;52.414;9.784;2023-01-28T11:56:04;4.10;;;2.50;;
6251;SDS011;3159;52.414;9.784;2023-01-28T11:58:59;18.37;;;9.47;;
6251;SDS011;3159;52.414;9.784;2023-01-28T12:01:38;28.47;;;14.70;;
6251;SDS011;3159;52.414;9.784;2023-01-28T12:04:18;13.10;;;6.17;;
6251;SDS011;3159;52.414;9.784;2023-01-28T12:06:58;4.97;;;3.73;;
6251;SDS011;3159;52.414;9.784;2023-01-28T12:09:38;4.20;;;3.10;;
6251;SDS011;3159;52.414;9.784;2023-01-28T12:12:18;3.30;;;3.00;;
6251;SDS011;3159;52.414;9.784;2023-01-28T12:17:55;4.17;;;2.60;;
6251;SDS011;3159;52.414;9.784;2023-01-28T12:20:34;4.87;;;2.87;;
6251;SDS011;3159;52.414;9.784;2023-01-28T12:23:14;3.03;;;2.83;;
6251;SDS011;3159;52.414;9.784;2023-01-28T12:26:04;4.20;;;3.10;;
6251;SDS011;3159;52.414;9.784;2023-01-28T12:28:44;6.13;;;3.27;;
6251;SDS011;3159;52.414;9.784;2023-01-28T12:31:31;3.33;;;3.03;;
6251;SDS011;3159;52.414;9.784;2023-01-28T12:34:24;4.87;;;2.93;;
6251;SDS011;3159;52.414;9.784;2023-01-28T12:37:10;4.73;;;3.07;;
6251;SDS011;3159;52.414;9.784;2023-01-28T12:39:49;3.63;;;3.33;;
6251;SDS011;3159;52.414;9.784;2023-01-28T12:42:28;3.97;;;3.43;;
6251;SDS011;3159;52.414;9.784;2023-01-28T12:45:01;5.67;;;4.10;;
6251;SDS011;3159;52.414;9.784;2023-01-28T12:47:40;5.00;;;3.57;;
6251;SDS011;3159;52.414;9.784;2023-01-28T12:50:14;4.53;;;3.40;;
6251;SDS011;3159;52.414;9.784;2023-01-28T12:52:47;5.90;;;3.90;;
6251;SDS011;3159;52.414;9.784;2023-01-28T12:55:19;4.53;;;4.00;;
6251;SDS011;3159;52.414;9.784;2023-01-28T12:57:55;6.37;;;3.73;;
6251;SDS011;3159;52.414;9.784;2023-01-28T13:00:24;10.97;;;6.50;;
6251;SDS011;3159;52.414;9.784;2023-01-28T13:02:56;4.50;;;3.93;;
6251;SDS011;3159;52.414;9.784;2023-01-28T13:05:35;4.27;;;3.80;;
6251;SDS011;3159;52.414;9.784;2023-01-28T13:08:09;6.40;;;4.50;;
6251;SDS011;3159;52.414;9.784;2023-01-28T13:10:41;4.90;;;3.93;;
6251;SDS011;3159;52.414;9.784;2023-01-28T13:13:12;4.27;;;3.73;;
6251;SDS011;3159;52.414;9.784;2023-01-28T13:15:43;5.57;;;4.47;;
6251;SDS011;3159;52.414;9.784;2023-01-28T13:20:55;4.97;;;3.63;;
6251;SDS011;3159;52.414;9.784;2023-01-28T13:23:24;6.83;;;3.77;;
6251;SDS011;3159;52.414;9.784;2023-01-28T13:26:07;4.80;;;4.20;;
6251;SDS011;3159;52.414;9.784;2023-01-28T13:28:35;7.77;;;3.77;;
6251;SDS011;3159;52.414;9.784;2023-01-28T13:31:03;4.07;;;3.67;;
6251;SDS011;3159;52.414;9.784;2023-01-28T13:33:31;6.30;;;4.23;;
6251;SDS011;3159;52.414;9.784;2023-01-28T13:36:01;6.57;;;4.00;;
6251;SDS011;3159;52.414;9.784;2023-01-28T13:38:34;4.90;;;3.83;;
6251;SDS011;3159;52.414;9.784;2023-01-28T13:41:02;6.07;;;4.10;;
6251;SDS011;3159;52.414;9.784;2023-01-28T13:43:38;5.87;;;4.70;;
6251;SDS011;3159;52.414;9.784;2023-01-28T13:46:07;5.87;;;4.60;;
6251;SDS011;3159;52.414;9.784;2023-01-28T13:48:38;5.83;;;4.83;;
6251;SDS011;3159;52.414;9.784;2023-01-28T13:51:16;5.80;;;5.20;;
6251;SDS011;3159;52.414;9.784;2023-01-28T13:53:47;5.17;;;4.67;;
6251;SDS011;3159;52.414;9.784;2023-01-28T13:56:20;6.40;;;5.10;;
6251;SDS011;3159;52.414;9.784;2023-01-28T14:10:33;9.17;;;5.97;;
6251;SDS011;3159;52.414;9.784;2023-01-28T14:13:18;6.50;;;5.90;;
6251;SDS011;3159;52.414;9.784;2023-01-28T14:18:55;7.10;;;6.40;;
6251;SDS011;3159;52.414;9.784;2023-01-28T14:21:25;7.27;;;6.67;;
6251;SDS011;3159;52.414;9.784;2023-01-28T14:23:54;6.87;;;6.23;;
6251;SDS011;3159;52.414;9.784;2023-01-28T14:26:30;6.17;;;5.53;;
6251;SDS011;3159;52.414;9.784;2023-01-28T14:29:15;5.70;;;5.20;;
6251;SDS011;3159;52.414;9.784;2023-01-28T14:31:50;8.57;;;5.90;;
6251;SDS011;3159;52.414;9.784;2023-01-28T14:34:20;6.77;;;6.10;;
6251;SDS011;3159;52.414;9.784;2023-01-28T14:36:49;6.57;;;5.97;;
6251;SDS011;3159;52.414;9.784;2023-01-28T14:39:20;7.73;;;5.57;;
6251;SDS011;3159;52.414;9.784;2023-01-28T14:41:51;6.07;;;5.40;;
6251;SDS011;3159;52.414;9.784;2023-01-28T14:44:23;7.87;;;4.97;;
6251;SDS011;3159;52.414;9.784;2023-01-28T14:47:05;6.43;;;5.30;;
6251;SDS011;3159;52.414;9.784;2023-01-28T14:49:44;7.60;;;5.37;;
6251;SDS011;3159;52.414;9.784;2023-01-28T14:52:27;9.07;;;6.00;;
6251;SDS011;3159;52.414;9.784;2023-01-28T14:55:13;9.37;;;5.90;;
6251;SDS011;3159;52.414;9.784;2023-01-28T14:57:54;7.10;;;6.50;;
6251;SDS011;3159;52.414;9.784;2023-01-28T15:00:24;8.33;;;6.80;;
6251;SDS011;3159;52.414;9.784;2023-01-28T15:02:52;7.47;;;6.23;;
6251;SDS011;3159;52.414;9.784;2023-01-28T15:05:20;6.83;;;6.23;;
6251;SDS011;3159;52.414;9.784;2023-01-28T15:07:49;5.83;;;5.30;;
6251;SDS011;3159;52.414;9.784;2023-01-28T15:10:18;7.80;;;5.83;;
6251;SDS011;3159;52.414;9.784;2023-01-28T15:12:48;6.83;;;6.17;;
6251;SDS011;3159;52.414;9.784;2023-01-28T15:15:22;8.20;;;6.60;;
6251;SDS011;3159;52.414;9.784;2023-01-28T15:17:59;7.40;;;6.70;;
6251;SDS011;3159;52.414;9.784;2023-01-28T15:20:29;6.90;;;6.20;;
6251;SDS011;3159;52.414;9.784;2023-01-28T15:22:56;6.77;;;6.07;;
6251;SDS011;3159;52.414;9.784;2023-01-28T15:25:25;9.00;;;6.20;;
6251;SDS011;3159;52.414;9.784;2023-01-28T15:27:54;8.03;;;7.10;;
6251;SDS011;3159;52.414;9.784;2023-01-28T15:30:27;11.67;;;7.37;;
6251;SDS011;3159;52.414;9.784;2023-01-28T15:32:57;7.60;;;6.90;;
6251;SDS011;3159;52.414;9.784;2023-01-28T15:35:25;8.57;;;6.77;;
6251;SDS011;3159;52.414;9.784;2023-01-28T15:37:51;7.83;;;6.60;;
6251;SDS011;3159;52.414;9.784;2023-01-28T15:40:19;8.57;;;6.90;;
6251;SDS011;3159;52.414;9.784;2023-01-28T15:42:47;7.17;;;6.33;;
6251;SDS011;3159;52.414;9.784;2023-01-28T15:45:15;7.57;;;6.53;;
6251;SDS011;3159;52.414;9.784;2023-01-28T15:47:45;7.07;;;6.37;;
6251;SDS011;3159;52.414;9.784;2023-01-28T15:50:16;7.60;;;6.77;;
6251;SDS011;3159;52.414;9.784;2023-01-28T15:52:44;8.87;;;6.37;;
6251;SDS011;3159;52.414;9.784;2023-01-28T15:55:29;7.40;;;6.67;;
6251;SDS011;3159;52.414;9.784;2023-01-28T15:58:16;8.50;;;7.70;;